Hauptseite
METAR-TAF:

METAR-TAF

Flughäfen :

Flughafen Caracas

Caracas, Venezuela

Breite: 10-36N, Länge: 066-59W, Höhe: 43 m

Beobachtung

Neuester Wetterbericht von vor 48 Minuten, um 05:00 UTC
Windstille
Temperatur 26°C
Luftfeuchtigkeit 74%
Luftdruck 1013 hPa
Sichtweite 10 km oder mehr
Aufgelockert bewölkt in der Höhe von 1600 ft

METAR: SVMI 180500Z 00000KT 9999 SCT016 26/21 Q1013

Zeit: 01:48 (05:48 UTC)

Prognose

Neuester Wetterbericht von vor 1 Stunde und 38 Minuten, um 04:10 UTC
Gültige Prognose vom 18 um 06 UTC bis 19 um 06 UTC
Wind 2 kt aus Ost/Nordost
Sichtweite 10 km oder mehr
Aufgelockert bewölkt in der Höhe von 1600 ft
Übergehend zu
vom 18 um 07 UTC bis 18 um 11 UTC
Wind kt aus Nord
Sichtweite: 9000 m
Leicht bewölkt in der Höhe von 1600 ft
Durchbrochene Bewölkung in der Höhe von 7000 ft
Sprühregen

TAF: SVMI 180410Z 1806/1906 07002KT 9999 SCT016 TX32/16Z TN24/06Z BECMG 1807/1811 00000KT 9000 DZ FEW016 BKN070

Wetterbeobachtungen und Prognosen von mehr als 4000 Flughäfen (METAR und TAF Bericht).

Die verfügbaren Stationen werden durch gelbe und rote Markierungen auf der Karte dargestellt.

Führen Sie die Maus auf sie, um den Namen der Station zu sehen.

Darauf klicken, um die Beobachtung von Wetterbeobachtungen und Prognosen zu sehen.

Um die Karte zu ändern : klicken Sie auf den grünen Tasten mit einem schwarzen Kreuz Zum Vergrößern, auf den grünen Button mit einem Gedankenstrich zu verkleinern, oder auf die grünen Pfeile für benachbarte Karten.


METAR-TAF: